logo dgac
Jueves 13 de Diciembre del 2018
Buscar por aerodromo o helipuerto
Ingrese nombre de aeródromo, localidad o designador OACI:

Aeródromo: Cabo 1° Juan Román (PUB) (SCAS)

Ubicación: Puerto Aisén, XI Región, Chile (45º 23' 57'' S, 72º 40' 12'' W) Ver ubicación en el mapa

Pistas

Orientación Dimensión Pendiente Superficie Resistencia APCH THR RWY PAPI
07/25 1300 x 23 ASPH PCN 25 F/A/Y/U No No
Horas de operación HJ
Elevación 10 m / 32 ft
Otra Información Adm : DGAC.
Uso : PUB
TEL : 672332599
Ubicado a 500 m al Este de Puerto Aysén

Cámara de Aeródromo www.dgac.gob.cl

Otra información ver AIP-Chile Volumen I AD 3.9-15.8-P

CCCM/FCCV Descargar
andera de Chile
Mapa de Cabo 1° Juan Román (PUB) (SCAS)

Último METAR

METAR SCAS 132000Z 26011KT 9999 BKN040 16/09 Q1008

Último TAF

No hay tafs registrados para este aeródromo

Últimas fotos cámaras

Imagen aerodromo Cabo 1° Juan Román (PUB) (SCAS) Este tomada el 13-12-2018 11:01:39 Imagen aerodromo Cabo 1° Juan Román (PUB) (SCAS) Oeste tomada el 13-12-2018 11:02:55

Último NOTAM

C2922/18 NOTAMN Q)SCTZ/QFAAH/IV/NBO/A/000/999/4524S07240W005 A)SCAS B)1809201236 C)1812201235 E) AD ATTN APERTURA PORTONES, SAT-SUN/FESTIVO COOR 24HR BFR AL CEL DE SER 991581775 O TEL 672332599

LLegadas a Cabo 1° Juan Román (PUB) (SCAS)

En vuelo

Vuelo Procedencia Hora Despegue Local Hora Arribo Local

Salidas de Cabo 1° Juan Román (PUB) (SCAS)

En vuelo

Vuelo Hacia Hora Despegue Local Hora Arribo Local